sensor_id;sensor_type;location;lat;lon;timestamp;P1;durP1;ratioP1;P2;durP2;ratioP2
50225;SDS011;36113;50.742;6.432;2023-02-28T00:02:51;8.98;;;6.30;;
50225;SDS011;36113;50.742;6.432;2023-02-28T00:05:18;8.57;;;6.72;;
50225;SDS011;36113;50.742;6.432;2023-02-28T00:07:45;7.70;;;6.20;;
50225;SDS011;36113;50.742;6.432;2023-02-28T00:10:12;10.55;;;5.70;;
50225;SDS011;36113;50.742;6.432;2023-02-28T00:12:39;10.45;;;5.93;;
50225;SDS011;36113;50.742;6.432;2023-02-28T00:15:05;9.38;;;5.38;;
50225;SDS011;36113;50.742;6.432;2023-02-28T00:17:31;11.07;;;7.07;;
50225;SDS011;36113;50.742;6.432;2023-02-28T00:19:56;11.05;;;7.15;;
50225;SDS011;36113;50.742;6.432;2023-02-28T00:22:26;10.65;;;7.05;;
50225;SDS011;36113;50.742;6.432;2023-02-28T00:24:52;10.88;;;6.28;;
50225;SDS011;36113;50.742;6.432;2023-02-28T00:27:17;6.60;;;5.78;;
50225;SDS011;36113;50.742;6.432;2023-02-28T00:29:42;6.75;;;5.25;;
50225;SDS011;36113;50.742;6.432;2023-02-28T00:32:08;7.03;;;5.35;;
50225;SDS011;36113;50.742;6.432;2023-02-28T00:34:33;6.25;;;5.60;;
50225;SDS011;36113;50.742;6.432;2023-02-28T00:37:05;5.18;;;4.72;;
50225;SDS011;36113;50.742;6.432;2023-02-28T00:39:35;8.05;;;4.50;;
50225;SDS011;36113;50.742;6.432;2023-02-28T00:42:01;6.72;;;4.80;;
50225;SDS011;36113;50.742;6.432;2023-02-28T00:44:27;5.93;;;5.30;;
50225;SDS011;36113;50.742;6.432;2023-02-28T00:46:53;6.07;;;5.05;;
50225;SDS011;36113;50.742;6.432;2023-02-28T00:49:19;6.45;;;5.32;;
50225;SDS011;36113;50.742;6.432;2023-02-28T00:51:45;5.43;;;4.77;;
50225;SDS011;36113;50.742;6.432;2023-02-28T00:54:10;5.18;;;4.68;;
50225;SDS011;36113;50.742;6.432;2023-02-28T00:56:36;6.03;;;5.00;;
50225;SDS011;36113;50.742;6.432;2023-02-28T00:59:01;4.82;;;4.25;;
50225;SDS011;36113;50.742;6.432;2023-02-28T01:01:26;10.68;;;5.60;;
50225;SDS011;36113;50.742;6.432;2023-02-28T01:03:51;7.28;;;4.90;;
50225;SDS011;36113;50.742;6.432;2023-02-28T01:06:17;5.80;;;4.68;;
50225;SDS011;36113;50.742;6.432;2023-02-28T01:08:42;6.60;;;5.10;;
50225;SDS011;36113;50.742;6.432;2023-02-28T01:11:08;7.80;;;5.55;;
50225;SDS011;36113;50.742;6.432;2023-02-28T01:13:39;5.18;;;4.55;;
50225;SDS011;36113;50.742;6.432;2023-02-28T01:16:05;5.88;;;4.97;;
50225;SDS011;36113;50.742;6.432;2023-02-28T01:18:31;6.38;;;4.63;;
50225;SDS011;36113;50.742;6.432;2023-02-28T01:20:56;5.32;;;4.72;;
50225;SDS011;36113;50.742;6.432;2023-02-28T01:23:22;5.10;;;4.60;;
50225;SDS011;36113;50.742;6.432;2023-02-28T01:25:48;7.63;;;4.43;;
50225;SDS011;36113;50.742;6.432;2023-02-28T01:28:15;6.25;;;4.63;;
50225;SDS011;36113;50.742;6.432;2023-02-28T01:30:40;4.72;;;4.03;;
50225;SDS011;36113;50.742;6.432;2023-02-28T01:33:06;5.47;;;4.30;;
50225;SDS011;36113;50.742;6.432;2023-02-28T01:35:34;4.63;;;4.22;;
50225;SDS011;36113;50.742;6.432;2023-02-28T01:38:00;5.63;;;4.18;;
50225;SDS011;36113;50.742;6.432;2023-02-28T01:40:26;5.85;;;4.55;;
50225;SDS011;36113;50.742;6.432;2023-02-28T01:42:51;5.00;;;4.47;;
50225;SDS011;36113;50.742;6.432;2023-02-28T01:45:27;6.10;;;4.60;;
50225;SDS011;36113;50.742;6.432;2023-02-28T01:50:27;7.70;;;5.60;;
50225;SDS011;36113;50.742;6.432;2023-02-28T01:52:57;9.13;;;4.38;;
50225;SDS011;36113;50.742;6.432;2023-02-28T01:55:26;5.03;;;4.28;;
50225;SDS011;36113;50.742;6.432;2023-02-28T01:57:55;4.45;;;4.03;;
50225;SDS011;36113;50.742;6.432;2023-02-28T02:00:22;4.55;;;4.15;;
50225;SDS011;36113;50.742;6.432;2023-02-28T02:02:52;5.28;;;4.78;;
50225;SDS011;36113;50.742;6.432;2023-02-28T02:05:21;8.27;;;4.40;;
50225;SDS011;36113;50.742;6.432;2023-02-28T02:07:50;5.57;;;4.05;;
50225;SDS011;36113;50.742;6.432;2023-02-28T02:10:41;5.63;;;4.05;;
50225;SDS011;36113;50.742;6.432;2023-02-28T02:18:38;7.03;;;4.63;;
50225;SDS011;36113;50.742;6.432;2023-02-28T02:26:34;5.05;;;4.35;;
50225;SDS011;36113;50.742;6.432;2023-02-28T02:34:51;5.35;;;3.65;;
50225;SDS011;36113;50.742;6.432;2023-02-28T02:40:17;4.53;;;4.22;;
50225;SDS011;36113;50.742;6.432;2023-02-28T02:43:01;4.38;;;3.80;;
50225;SDS011;36113;50.742;6.432;2023-02-28T02:48:11;5.22;;;4.30;;
50225;SDS011;36113;50.742;6.432;2023-02-28T02:50:44;5.55;;;4.82;;
50225;SDS011;36113;50.742;6.432;2023-02-28T02:53:14;9.90;;;4.78;;
50225;SDS011;36113;50.742;6.432;2023-02-28T02:55:43;6.30;;;4.30;;
50225;SDS011;36113;50.742;6.432;2023-02-28T02:58:13;8.38;;;4.10;;
50225;SDS011;36113;50.742;6.432;2023-02-28T03:00:46;4.15;;;3.83;;
50225;SDS011;36113;50.742;6.432;2023-02-28T03:03:18;4.70;;;4.20;;
50225;SDS011;36113;50.742;6.432;2023-02-28T03:05:53;8.15;;;4.35;;
50225;SDS011;36113;50.742;6.432;2023-02-28T03:08:19;6.03;;;4.22;;
50225;SDS011;36113;50.742;6.432;2023-02-28T03:10:46;5.20;;;4.10;;
50225;SDS011;36113;50.742;6.432;2023-02-28T03:13:22;4.35;;;3.95;;
50225;SDS011;36113;50.742;6.432;2023-02-28T03:21:34;8.50;;;4.35;;
50225;SDS011;36113;50.742;6.432;2023-02-28T03:24:09;4.75;;;3.58;;
50225;SDS011;36113;50.742;6.432;2023-02-28T03:26:42;4.45;;;3.67;;
50225;SDS011;36113;50.742;6.432;2023-02-28T03:29:15;6.57;;;4.72;;
50225;SDS011;36113;50.742;6.432;2023-02-28T03:31:47;4.57;;;4.05;;
50225;SDS011;36113;50.742;6.432;2023-02-28T03:34:19;4.50;;;4.18;;
50225;SDS011;36113;50.742;6.432;2023-02-28T03:36:50;4.50;;;3.75;;
50225;SDS011;36113;50.742;6.432;2023-02-28T03:39:27;4.22;;;3.78;;
50225;SDS011;36113;50.742;6.432;2023-02-28T03:42:00;5.20;;;4.40;;
50225;SDS011;36113;50.742;6.432;2023-02-28T03:44:31;4.30;;;4.00;;
50225;SDS011;36113;50.742;6.432;2023-02-28T03:47:02;4.85;;;3.78;;
50225;SDS011;36113;50.742;6.432;2023-02-28T03:49:56;5.50;;;4.45;;
50225;SDS011;36113;50.742;6.432;2023-02-28T03:52:23;5.97;;;4.70;;
50225;SDS011;36113;50.742;6.432;2023-02-28T03:54:53;7.53;;;4.55;;
50225;SDS011;36113;50.742;6.432;2023-02-28T04:00:14;6.28;;;4.43;;
50225;SDS011;36113;50.742;6.432;2023-02-28T04:02:53;6.07;;;4.00;;
50225;SDS011;36113;50.742;6.432;2023-02-28T04:05:19;6.72;;;4.30;;
50225;SDS011;36113;50.742;6.432;2023-02-28T04:07:46;6.82;;;4.00;;
50225;SDS011;36113;50.742;6.432;2023-02-28T04:10:13;6.82;;;4.50;;
50225;SDS011;36113;50.742;6.432;2023-02-28T04:12:39;7.38;;;4.63;;
50225;SDS011;36113;50.742;6.432;2023-02-28T04:15:05;5.68;;;4.45;;
50225;SDS011;36113;50.742;6.432;2023-02-28T04:17:31;5.60;;;4.53;;
50225;SDS011;36113;50.742;6.432;2023-02-28T04:19:56;8.63;;;4.55;;
50225;SDS011;36113;50.742;6.432;2023-02-28T04:22:22;4.60;;;4.07;;
50225;SDS011;36113;50.742;6.432;2023-02-28T04:24:47;7.43;;;3.85;;
50225;SDS011;36113;50.742;6.432;2023-02-28T04:27:12;7.03;;;4.40;;
50225;SDS011;36113;50.742;6.432;2023-02-28T04:29:40;4.75;;;4.15;;
50225;SDS011;36113;50.742;6.432;2023-02-28T04:32:09;5.72;;;5.05;;
50225;SDS011;36113;50.742;6.432;2023-02-28T04:34:35;4.43;;;4.03;;
50225;SDS011;36113;50.742;6.432;2023-02-28T04:37:00;6.97;;;4.53;;
50225;SDS011;36113;50.742;6.432;2023-02-28T04:39:26;5.85;;;5.28;;
50225;SDS011;36113;50.742;6.432;2023-02-28T04:41:51;4.97;;;4.38;;
50225;SDS011;36113;50.742;6.432;2023-02-28T04:44:17;8.48;;;5.07;;
50225;SDS011;36113;50.742;6.432;2023-02-28T04:46:42;6.22;;;4.70;;
50225;SDS011;36113;50.742;6.432;2023-02-28T04:49:08;4.90;;;4.45;;
50225;SDS011;36113;50.742;6.432;2023-02-28T04:51:36;5.68;;;5.05;;
50225;SDS011;36113;50.742;6.432;2023-02-28T04:54:02;5.80;;;4.35;;
50225;SDS011;36113;50.742;6.432;2023-02-28T04:56:27;4.90;;;4.50;;
50225;SDS011;36113;50.742;6.432;2023-02-28T04:58:52;5.13;;;4.57;;
50225;SDS011;36113;50.742;6.432;2023-02-28T05:01:24;4.90;;;4.40;;
50225;SDS011;36113;50.742;6.432;2023-02-28T05:03:52;6.30;;;4.30;;
50225;SDS011;36113;50.742;6.432;2023-02-28T05:06:19;4.78;;;4.32;;
50225;SDS011;36113;50.742;6.432;2023-02-28T05:08:45;6.38;;;5.75;;
50225;SDS011;36113;50.742;6.432;2023-02-28T05:11:16;6.00;;;3.92;;
50225;SDS011;36113;50.742;6.432;2023-02-28T05:13:43;6.43;;;4.32;;
50225;SDS011;36113;50.742;6.432;2023-02-28T05:16:09;5.28;;;4.70;;
50225;SDS011;36113;50.742;6.432;2023-02-28T05:18:34;4.53;;;4.20;;
50225;SDS011;36113;50.742;6.432;2023-02-28T05:20:59;5.25;;;4.70;;
50225;SDS011;36113;50.742;6.432;2023-02-28T05:23:27;5.30;;;4.72;;
50225;SDS011;36113;50.742;6.432;2023-02-28T05:25:52;5.68;;;5.25;;
50225;SDS011;36113;50.742;6.432;2023-02-28T05:28:19;6.88;;;4.97;;
50225;SDS011;36113;50.742;6.432;2023-02-28T05:30:44;5.32;;;4.82;;
50225;SDS011;36113;50.742;6.432;2023-02-28T05:33:10;10.40;;;5.82;;
50225;SDS011;36113;50.742;6.432;2023-02-28T05:35:37;8.43;;;5.82;;
50225;SDS011;36113;50.742;6.432;2023-02-28T05:38:04;7.43;;;5.97;;
50225;SDS011;36113;50.742;6.432;2023-02-28T05:40:29;6.07;;;5.15;;
50225;SDS011;36113;50.742;6.432;2023-02-28T05:42:54;5.80;;;4.35;;
50225;SDS011;36113;50.742;6.432;2023-02-28T05:45:19;4.72;;;4.32;;
50225;SDS011;36113;50.742;6.432;2023-02-28T05:47:45;7.25;;;4.57;;
50225;SDS011;36113;50.742;6.432;2023-02-28T05:50:10;5.00;;;4.70;;
50225;SDS011;36113;50.742;6.432;2023-02-28T05:52:36;13.27;;;5.65;;
50225;SDS011;36113;50.742;6.432;2023-02-28T05:55:02;7.00;;;5.83;;
50225;SDS011;36113;50.742;6.432;2023-02-28T05:57:28;6.70;;;5.20;;
50225;SDS011;36113;50.742;6.432;2023-02-28T05:59:53;5.88;;;5.07;;
50225;SDS011;36113;50.742;6.432;2023-02-28T06:02:18;5.55;;;5.00;;
50225;SDS011;36113;50.742;6.432;2023-02-28T06:04:44;8.02;;;4.95;;
50225;SDS011;36113;50.742;6.432;2023-02-28T06:07:09;7.88;;;5.10;;
50225;SDS011;36113;50.742;6.432;2023-02-28T06:09:35;6.43;;;5.10;;
50225;SDS011;36113;50.742;6.432;2023-02-28T06:12:02;7.17;;;5.87;;
50225;SDS011;36113;50.742;6.432;2023-02-28T06:14:30;6.68;;;5.40;;
50225;SDS011;36113;50.742;6.432;2023-02-28T06:16:57;6.72;;;4.70;;
50225;SDS011;36113;50.742;6.432;2023-02-28T06:19:23;6.80;;;5.35;;
50225;SDS011;36113;50.742;6.432;2023-02-28T06:21:52;11.73;;;5.72;;
50225;SDS011;36113;50.742;6.432;2023-02-28T06:24:21;7.68;;;5.82;;
50225;SDS011;36113;50.742;6.432;2023-02-28T06:26:48;13.55;;;6.00;;
50225;SDS011;36113;50.742;6.432;2023-02-28T06:29:14;15.32;;;5.45;;
50225;SDS011;36113;50.742;6.432;2023-02-28T06:31:43;8.98;;;5.15;;
50225;SDS011;36113;50.742;6.432;2023-02-28T06:34:09;6.37;;;5.63;;
50225;SDS011;36113;50.742;6.432;2023-02-28T06:36:36;7.30;;;4.95;;
50225;SDS011;36113;50.742;6.432;2023-02-28T06:39:02;5.85;;;4.85;;
50225;SDS011;36113;50.742;6.432;2023-02-28T06:41:28;7.43;;;5.20;;
50225;SDS011;36113;50.742;6.432;2023-02-28T06:43:53;6.95;;;6.35;;
50225;SDS011;36113;50.742;6.432;2023-02-28T06:46:19;8.50;;;5.65;;
50225;SDS011;36113;50.742;6.432;2023-02-28T06:48:44;11.18;;;5.90;;
50225;SDS011;36113;50.742;6.432;2023-02-28T06:51:11;7.22;;;5.80;;
50225;SDS011;36113;50.742;6.432;2023-02-28T06:53:39;10.63;;;5.85;;
50225;SDS011;36113;50.742;6.432;2023-02-28T06:56:05;10.57;;;5.50;;
50225;SDS011;36113;50.742;6.432;2023-02-28T06:58:32;9.75;;;6.25;;
50225;SDS011;36113;50.742;6.432;2023-02-28T07:00:58;8.05;;;5.70;;
50225;SDS011;36113;50.742;6.432;2023-02-28T07:03:23;6.20;;;5.43;;
50225;SDS011;36113;50.742;6.432;2023-02-28T07:05:49;7.70;;;6.90;;
50225;SDS011;36113;50.742;6.432;2023-02-28T07:08:14;5.25;;;4.82;;
50225;SDS011;36113;50.742;6.432;2023-02-28T07:10:40;14.10;;;5.47;;
50225;SDS011;36113;50.742;6.432;2023-02-28T07:13:06;7.97;;;5.13;;
50225;SDS011;36113;50.742;6.432;2023-02-28T07:15:33;7.63;;;6.50;;
50225;SDS011;36113;50.742;6.432;2023-02-28T07:17:59;7.32;;;6.15;;
50225;SDS011;36113;50.742;6.432;2023-02-28T07:20:24;9.30;;;7.40;;
50225;SDS011;36113;50.742;6.432;2023-02-28T07:22:50;7.55;;;6.32;;
50225;SDS011;36113;50.742;6.432;2023-02-28T07:25:24;7.10;;;6.07;;
50225;SDS011;36113;50.742;6.432;2023-02-28T07:27:51;6.47;;;5.85;;
50225;SDS011;36113;50.742;6.432;2023-02-28T07:30:16;7.28;;;5.60;;
50225;SDS011;36113;50.742;6.432;2023-02-28T07:32:42;7.20;;;5.72;;
50225;SDS011;36113;50.742;6.432;2023-02-28T07:35:07;6.82;;;5.85;;
50225;SDS011;36113;50.742;6.432;2023-02-28T07:37:36;6.30;;;5.40;;
50225;SDS011;36113;50.742;6.432;2023-02-28T07:40:04;5.97;;;5.38;;
50225;SDS011;36113;50.742;6.432;2023-02-28T07:42:33;5.28;;;4.78;;
50225;SDS011;36113;50.742;6.432;2023-02-28T07:44:59;5.43;;;4.93;;
50225;SDS011;36113;50.742;6.432;2023-02-28T07:47:24;5.50;;;5.00;;
50225;SDS011;36113;50.742;6.432;2023-02-28T07:49:49;5.30;;;4.90;;
50225;SDS011;36113;50.742;6.432;2023-02-28T07:52:18;4.80;;;4.38;;
50225;SDS011;36113;50.742;6.432;2023-02-28T07:54:43;9.70;;;4.78;;
50225;SDS011;36113;50.742;6.432;2023-02-28T07:57:11;4.93;;;4.53;;
50225;SDS011;36113;50.742;6.432;2023-02-28T07:59:37;8.00;;;5.50;;
50225;SDS011;36113;50.742;6.432;2023-02-28T08:02:02;7.18;;;5.78;;
50225;SDS011;36113;50.742;6.432;2023-02-28T08:04:27;5.28;;;4.88;;
50225;SDS011;36113;50.742;6.432;2023-02-28T08:06:53;5.50;;;4.70;;
50225;SDS011;36113;50.742;6.432;2023-02-28T08:09:21;6.85;;;5.65;;
50225;SDS011;36113;50.742;6.432;2023-02-28T08:11:46;6.00;;;5.40;;
50225;SDS011;36113;50.742;6.432;2023-02-28T08:14:15;5.38;;;4.97;;
50225;SDS011;36113;50.742;6.432;2023-02-28T08:16:40;6.43;;;5.28;;
50225;SDS011;36113;50.742;6.432;2023-02-28T08:19:07;5.47;;;5.05;;
50225;SDS011;36113;50.742;6.432;2023-02-28T08:21:33;5.38;;;4.97;;
50225;SDS011;36113;50.742;6.432;2023-02-28T08:23:58;6.32;;;4.97;;
50225;SDS011;36113;50.742;6.432;2023-02-28T08:26:24;7.10;;;5.47;;
50225;SDS011;36113;50.742;6.432;2023-02-28T08:28:49;5.53;;;4.50;;
50225;SDS011;36113;50.742;6.432;2023-02-28T08:31:15;5.28;;;4.75;;
50225;SDS011;36113;50.742;6.432;2023-02-28T08:33:42;7.97;;;5.28;;
50225;SDS011;36113;50.742;6.432;2023-02-28T08:36:09;8.13;;;5.28;;
50225;SDS011;36113;50.742;6.432;2023-02-28T08:38:35;9.55;;;5.57;;
50225;SDS011;36113;50.742;6.432;2023-02-28T08:41:02;6.97;;;5.20;;
50225;SDS011;36113;50.742;6.432;2023-02-28T08:43:32;9.95;;;5.90;;
50225;SDS011;36113;50.742;6.432;2023-02-28T08:45:58;9.60;;;5.05;;
50225;SDS011;36113;50.742;6.432;2023-02-28T08:48:27;5.22;;;4.63;;
50225;SDS011;36113;50.742;6.432;2023-02-28T08:51:01;6.03;;;4.82;;
50225;SDS011;36113;50.742;6.432;2023-02-28T08:53:29;9.35;;;5.53;;
50225;SDS011;36113;50.742;6.432;2023-02-28T08:55:58;10.00;;;5.35;;
50225;SDS011;36113;50.742;6.432;2023-02-28T08:58:34;7.95;;;5.00;;
50225;SDS011;36113;50.742;6.432;2023-02-28T09:01:00;4.87;;;4.47;;
50225;SDS011;36113;50.742;6.432;2023-02-28T09:03:31;4.88;;;4.47;;
50225;SDS011;36113;50.742;6.432;2023-02-28T09:05:57;5.15;;;4.65;;
50225;SDS011;36113;50.742;6.432;2023-02-28T09:08:25;5.43;;;4.63;;
50225;SDS011;36113;50.742;6.432;2023-02-28T09:10:55;5.53;;;5.03;;
50225;SDS011;36113;50.742;6.432;2023-02-28T09:13:22;3.58;;;3.30;;
50225;SDS011;36113;50.742;6.432;2023-02-28T09:15:51;3.95;;;3.65;;
50225;SDS011;36113;50.742;6.432;2023-02-28T09:18:17;3.10;;;2.90;;
50225;SDS011;36113;50.742;6.432;2023-02-28T09:20:42;4.43;;;4.10;;
50225;SDS011;36113;50.742;6.432;2023-02-28T09:23:09;3.40;;;3.10;;
50225;SDS011;36113;50.742;6.432;2023-02-28T09:25:35;3.60;;;3.40;;
50225;SDS011;36113;50.742;6.432;2023-02-28T09:28:02;3.33;;;3.13;;
50225;SDS011;36113;50.742;6.432;2023-02-28T09:30:27;3.22;;;2.92;;
50225;SDS011;36113;50.742;6.432;2023-02-28T09:32:53;3.78;;;3.42;;
50225;SDS011;36113;50.742;6.432;2023-02-28T09:35:22;3.45;;;3.15;;
50225;SDS011;36113;50.742;6.432;2023-02-28T09:37:49;3.42;;;3.22;;
50225;SDS011;36113;50.742;6.432;2023-02-28T09:40:16;3.60;;;3.40;;
50225;SDS011;36113;50.742;6.432;2023-02-28T09:42:46;3.65;;;2.90;;
50225;SDS011;36113;50.742;6.432;2023-02-28T09:45:23;5.45;;;3.40;;
50225;SDS011;36113;50.742;6.432;2023-02-28T09:47:52;3.25;;;2.85;;
50225;SDS011;36113;50.742;6.432;2023-02-28T09:50:23;2.45;;;2.25;;
50225;SDS011;36113;50.742;6.432;2023-02-28T09:52:57;3.03;;;2.73;;
50225;SDS011;36113;50.742;6.432;2023-02-28T09:55:30;2.63;;;2.42;;
50225;SDS011;36113;50.742;6.432;2023-02-28T09:58:00;3.47;;;2.58;;
50225;SDS011;36113;50.742;6.432;2023-02-28T10:00:36;3.20;;;2.88;;
50225;SDS011;36113;50.742;6.432;2023-02-28T10:06:14;2.65;;;2.42;;
50225;SDS011;36113;50.742;6.432;2023-02-28T10:09:05;2.50;;;2.20;;
50225;SDS011;36113;50.742;6.432;2023-02-28T10:11:32;2.72;;;2.53;;
50225;SDS011;36113;50.742;6.432;2023-02-28T10:14:12;2.60;;;2.50;;
50225;SDS011;36113;50.742;6.432;2023-02-28T10:16:41;2.10;;;2.00;;
50225;SDS011;36113;50.742;6.432;2023-02-28T10:19:16;2.70;;;2.50;;
50225;SDS011;36113;50.742;6.432;2023-02-28T10:21:51;2.78;;;2.58;;
50225;SDS011;36113;50.742;6.432;2023-02-28T10:27:37;3.10;;;2.83;;
50225;SDS011;36113;50.742;6.432;2023-02-28T10:29:57;2.70;;;2.50;;
50225;SDS011;36113;50.742;6.432;2023-02-28T10:32:27;2.63;;;2.53;;
50225;SDS011;36113;50.742;6.432;2023-02-28T10:37:39;2.92;;;2.70;;
50225;SDS011;36113;50.742;6.432;2023-02-28T10:40:25;2.92;;;2.63;;
50225;SDS011;36113;50.742;6.432;2023-02-28T10:43:17;3.33;;;3.03;;
50225;SDS011;36113;50.742;6.432;2023-02-28T10:48:56;2.47;;;2.38;;
50225;SDS011;36113;50.742;6.432;2023-02-28T10:51:33;3.42;;;3.13;;
50225;SDS011;36113;50.742;6.432;2023-02-28T10:54:01;2.85;;;2.75;;
50225;SDS011;36113;50.742;6.432;2023-02-28T10:56:30;2.78;;;2.58;;
50225;SDS011;36113;50.742;6.432;2023-02-28T10:59:19;2.63;;;2.42;;
50225;SDS011;36113;50.742;6.432;2023-02-28T11:01:51;3.47;;;3.20;;
50225;SDS011;36113;50.742;6.432;2023-02-28T11:04:19;5.40;;;2.72;;
50225;SDS011;36113;50.742;6.432;2023-02-28T11:07:39;11.10;;;3.58;;
50225;SDS011;36113;50.742;6.432;2023-02-28T11:09:50;7.63;;;3.00;;
50225;SDS011;36113;50.742;6.432;2023-02-28T11:12:26;6.03;;;3.08;;
50225;SDS011;36113;50.742;6.432;2023-02-28T11:14:58;2.90;;;2.70;;
50225;SDS011;36113;50.742;6.432;2023-02-28T11:17:27;3.28;;;2.97;;
50225;SDS011;36113;50.742;6.432;2023-02-28T11:20:37;2.70;;;2.50;;
50225;SDS011;36113;50.742;6.432;2023-02-28T11:22:48;3.10;;;2.90;;
50225;SDS011;36113;50.742;6.432;2023-02-28T11:25:19;3.70;;;3.38;;
50225;SDS011;36113;50.742;6.432;2023-02-28T11:28:27;3.08;;;2.80;;
50225;SDS011;36113;50.742;6.432;2023-02-28T11:33:44;3.20;;;3.00;;
50225;SDS011;36113;50.742;6.432;2023-02-28T11:38:50;3.63;;;3.30;;
50225;SDS011;36113;50.742;6.432;2023-02-28T11:41:29;3.30;;;3.03;;
50225;SDS011;36113;50.742;6.432;2023-02-28T11:50:03;3.72;;;3.13;;
50225;SDS011;36113;50.742;6.432;2023-02-28T11:57:53;2.90;;;2.70;;
50225;SDS011;36113;50.742;6.432;2023-02-28T12:03:27;3.33;;;3.03;;
50225;SDS011;36113;50.742;6.432;2023-02-28T12:08:44;2.60;;;2.50;;
50225;SDS011;36113;50.742;6.432;2023-02-28T12:22:46;3.85;;;3.47;;
50225;SDS011;36113;50.742;6.432;2023-02-28T12:25:42;4.25;;;3.60;;
50225;SDS011;36113;50.742;6.432;2023-02-28T12:28:32;5.78;;;3.17;;
50225;SDS011;36113;50.742;6.432;2023-02-28T12:31:03;3.42;;;3.13;;
50225;SDS011;36113;50.742;6.432;2023-02-28T12:33:39;3.60;;;3.40;;
50225;SDS011;36113;50.742;6.432;2023-02-28T12:36:09;3.92;;;3.33;;
50225;SDS011;36113;50.742;6.432;2023-02-28T12:38:45;3.28;;;3.08;;
50225;SDS011;36113;50.742;6.432;2023-02-28T12:44:03;4.97;;;3.92;;
50225;SDS011;36113;50.742;6.432;2023-02-28T12:46:36;5.68;;;3.38;;
50225;SDS011;36113;50.742;6.432;2023-02-28T12:49:10;3.60;;;3.22;;
50225;SDS011;36113;50.742;6.432;2023-02-28T12:51:40;3.63;;;3.42;;
50225;SDS011;36113;50.742;6.432;2023-02-28T12:54:25;7.70;;;3.72;;
50225;SDS011;36113;50.742;6.432;2023-02-28T12:57:02;2.90;;;2.70;;
50225;SDS011;36113;50.742;6.432;2023-02-28T13:10:59;3.42;;;3.22;;
50225;SDS011;36113;50.742;6.432;2023-02-28T13:13:25;5.15;;;3.65;;
50225;SDS011;36113;50.742;6.432;2023-02-28T13:21:07;3.67;;;3.20;;
50225;SDS011;36113;50.742;6.432;2023-02-28T13:23:39;4.95;;;3.78;;
50225;SDS011;36113;50.742;6.432;2023-02-28T13:34:40;4.35;;;3.88;;
50225;SDS011;36113;50.742;6.432;2023-02-28T13:39:48;3.70;;;3.40;;
50225;SDS011;36113;50.742;6.432;2023-02-28T13:47:30;3.15;;;2.95;;
50225;SDS011;36113;50.742;6.432;2023-02-28T13:52:45;3.75;;;3.45;;
50225;SDS011;36113;50.742;6.432;2023-02-28T13:55:29;4.20;;;3.90;;
50225;SDS011;36113;50.742;6.432;2023-02-28T13:57:59;4.30;;;3.97;;
50225;SDS011;36113;50.742;6.432;2023-02-28T14:06:29;4.15;;;3.63;;
50225;SDS011;36113;50.742;6.432;2023-02-28T14:09:01;4.10;;;3.80;;
50225;SDS011;36113;50.742;6.432;2023-02-28T14:11:30;4.18;;;3.78;;
50225;SDS011;36113;50.742;6.432;2023-02-28T14:13:58;4.28;;;3.65;;
50225;SDS011;36113;50.742;6.432;2023-02-28T14:16:26;5.00;;;3.85;;
50225;SDS011;36113;50.742;6.432;2023-02-28T14:19:19;3.70;;;3.40;;
50225;SDS011;36113;50.742;6.432;2023-02-28T14:22:09;3.95;;;3.60;;
50225;SDS011;36113;50.742;6.432;2023-02-28T14:27:40;3.83;;;3.63;;
50225;SDS011;36113;50.742;6.432;2023-02-28T14:38:56;4.97;;;3.85;;
50225;SDS011;36113;50.742;6.432;2023-02-28T14:41:40;4.15;;;3.67;;
50225;SDS011;36113;50.742;6.432;2023-02-28T14:46:54;5.43;;;4.18;;
50225;SDS011;36113;50.742;6.432;2023-02-28T14:49:34;4.30;;;3.97;;
50225;SDS011;36113;50.742;6.432;2023-02-28T14:54:51;4.75;;;4.30;;
50225;SDS011;36113;50.742;6.432;2023-02-28T14:57:23;4.93;;;4.53;;
50225;SDS011;36113;50.742;6.432;2023-02-28T15:00:06;4.13;;;3.78;;
50225;SDS011;36113;50.742;6.432;2023-02-28T15:02:39;4.40;;;4.03;;
50225;SDS011;36113;50.742;6.432;2023-02-28T15:07:43;7.53;;;5.13;;
50225;SDS011;36113;50.742;6.432;2023-02-28T15:12:45;4.50;;;4.10;;
50225;SDS011;36113;50.742;6.432;2023-02-28T15:15:16;3.63;;;3.40;;
50225;SDS011;36113;50.742;6.432;2023-02-28T15:17:43;3.97;;;3.67;;
50225;SDS011;36113;50.742;6.432;2023-02-28T15:20:12;5.53;;;3.75;;
50225;SDS011;36113;50.742;6.432;2023-02-28T15:22:40;4.03;;;3.72;;
50225;SDS011;36113;50.742;6.432;2023-02-28T15:25:06;4.65;;;3.85;;
50225;SDS011;36113;50.742;6.432;2023-02-28T15:27:35;4.28;;;3.88;;
50225;SDS011;36113;50.742;6.432;2023-02-28T15:30:14;4.40;;;4.05;;
50225;SDS011;36113;50.742;6.432;2023-02-28T15:32:45;4.47;;;4.07;;
50225;SDS011;36113;50.742;6.432;2023-02-28T15:35:29;4.32;;;3.97;;
50225;SDS011;36113;50.742;6.432;2023-02-28T15:40:29;4.75;;;4.35;;
50225;SDS011;36113;50.742;6.432;2023-02-28T15:43:07;5.05;;;4.55;;
50225;SDS011;36113;50.742;6.432;2023-02-28T15:45:45;5.00;;;4.55;;
50225;SDS011;36113;50.742;6.432;2023-02-28T15:48:21;5.25;;;4.45;;
50225;SDS011;36113;50.742;6.432;2023-02-28T15:50:49;9.25;;;5.78;;
50225;SDS011;36113;50.742;6.432;2023-02-28T15:53:19;6.50;;;5.88;;
50225;SDS011;36113;50.742;6.432;2023-02-28T15:55:53;5.43;;;4.97;;
50225;SDS011;36113;50.742;6.432;2023-02-28T15:58:22;5.03;;;4.60;;
50225;SDS011;36113;50.742;6.432;2023-02-28T16:00:59;5.88;;;5.38;;
50225;SDS011;36113;50.742;6.432;2023-02-28T16:03:46;5.68;;;4.80;;
50225;SDS011;36113;50.742;6.432;2023-02-28T16:08:56;6.07;;;4.78;;
50225;SDS011;36113;50.742;6.432;2023-02-28T16:11:22;7.25;;;6.60;;
50225;SDS011;36113;50.742;6.432;2023-02-28T16:13:47;6.95;;;6.25;;
50225;SDS011;36113;50.742;6.432;2023-02-28T16:16:17;5.78;;;5.38;;
50225;SDS011;36113;50.742;6.432;2023-02-28T16:18:44;4.90;;;4.50;;
50225;SDS011;36113;50.742;6.432;2023-02-28T16:21:10;6.53;;;5.18;;
50225;SDS011;36113;50.742;6.432;2023-02-28T16:23:35;7.45;;;6.65;;
50225;SDS011;36113;50.742;6.432;2023-02-28T16:26:00;9.85;;;8.85;;
50225;SDS011;36113;50.742;6.432;2023-02-28T16:28:29;14.45;;;10.63;;
50225;SDS011;36113;50.742;6.432;2023-02-28T16:30:57;7.93;;;6.50;;
50225;SDS011;36113;50.742;6.432;2023-02-28T16:33:27;13.18;;;10.15;;
50225;SDS011;36113;50.742;6.432;2023-02-28T16:35:53;10.45;;;6.88;;
50225;SDS011;36113;50.742;6.432;2023-02-28T16:38:18;5.57;;;5.05;;
50225;SDS011;36113;50.742;6.432;2023-02-28T16:40:44;7.63;;;5.32;;
50225;SDS011;36113;50.742;6.432;2023-02-28T16:43:13;7.17;;;5.93;;
50225;SDS011;36113;50.742;6.432;2023-02-28T16:45:42;7.97;;;6.85;;
50225;SDS011;36113;50.742;6.432;2023-02-28T16:48:10;11.05;;;8.88;;
50225;SDS011;36113;50.742;6.432;2023-02-28T16:50:38;10.18;;;7.32;;
50225;SDS011;36113;50.742;6.432;2023-02-28T16:53:03;9.07;;;6.60;;
50225;SDS011;36113;50.742;6.432;2023-02-28T16:55:29;12.57;;;8.15;;
50225;SDS011;36113;50.742;6.432;2023-02-28T16:57:58;7.55;;;6.85;;
50225;SDS011;36113;50.742;6.432;2023-02-28T17:00:26;7.35;;;5.63;;
50225;SDS011;36113;50.742;6.432;2023-02-28T17:02:53;5.78;;;5.28;;
50225;SDS011;36113;50.742;6.432;2023-02-28T17:05:18;5.13;;;4.72;;
50225;SDS011;36113;50.742;6.432;2023-02-28T17:07:45;5.70;;;5.20;;
50225;SDS011;36113;50.742;6.432;2023-02-28T17:12:36;5.40;;;4.60;;
50225;SDS011;36113;50.742;6.432;2023-02-28T17:15:01;5.95;;;5.45;;
50225;SDS011;36113;50.742;6.432;2023-02-28T17:17:27;6.80;;;5.20;;
50225;SDS011;36113;50.742;6.432;2023-02-28T17:19:54;5.13;;;4.72;;
50225;SDS011;36113;50.742;6.432;2023-02-28T17:22:19;6.07;;;5.15;;
50225;SDS011;36113;50.742;6.432;2023-02-28T17:24:44;6.05;;;4.53;;
50225;SDS011;36113;50.742;6.432;2023-02-28T17:27:13;5.93;;;5.05;;
50225;SDS011;36113;50.742;6.432;2023-02-28T17:29:38;6.18;;;5.60;;
50225;SDS011;36113;50.742;6.432;2023-02-28T17:32:04;5.97;;;5.47;;
50225;SDS011;36113;50.742;6.432;2023-02-28T17:34:29;6.10;;;5.22;;